Aviation

FTHA31 MTPP 231100
TAF MTPP 231100Z 2312/2412 11007KT 8000 FEW022
FM231400 19010KT 9999 FEW024 SCT050
PROB30 TEMPO 2322/2402 4500 -TSRA FEW022CB SCT040
BECMG 2404/2408 13006KT 8000 NSW FEW016 SCT050=